createdAt,value
2018-05-10T00:01:31.143Z,20.88
2018-05-10T00:03:58.672Z,20.84
2018-05-10T00:06:26.176Z,20.77
2018-05-10T00:08:53.737Z,20.59
2018-05-10T00:11:21.216Z,20.63
2018-05-10T00:13:48.728Z,20.69
2018-05-10T00:16:16.222Z,20.48
2018-05-10T00:18:43.733Z,20.47
2018-05-10T00:21:11.232Z,20.29
2018-05-10T00:23:38.711Z,20.46
2018-05-10T00:26:06.229Z,20.51
2018-05-10T00:28:33.734Z,20.32
2018-05-10T00:31:01.257Z,20.35
2018-05-10T00:33:28.770Z,20.36
2018-05-10T00:35:57.156Z,20.36
2018-05-10T00:38:24.692Z,20.17
2018-05-10T00:40:52.330Z,20.26
2018-05-10T00:43:19.887Z,20.31
2018-05-10T00:45:47.393Z,20.26
2018-05-10T00:48:15.069Z,20.07
2018-05-10T00:50:43.236Z,20.08
2018-05-10T00:53:10.763Z,20.00
2018-05-10T00:55:38.310Z,19.95
2018-05-10T00:58:05.867Z,20.13
2018-05-10T01:00:38.633Z,20.06
2018-05-10T01:03:06.880Z,20.20
2018-05-10T01:05:34.410Z,19.98
2018-05-10T01:08:01.951Z,20.27
2018-05-10T01:10:29.424Z,19.97
2018-05-10T01:12:56.955Z,19.89
2018-05-10T01:15:24.462Z,19.94
2018-05-10T01:17:51.995Z,19.80
2018-05-10T01:20:19.520Z,19.74
2018-05-10T01:22:47.022Z,19.77
2018-05-10T01:25:14.514Z,19.74
2018-05-10T01:27:41.999Z,19.72
2018-05-10T01:30:09.531Z,19.66
2018-05-10T01:32:37.023Z,19.72
2018-05-10T01:35:16.429Z,19.44
2018-05-10T01:37:43.943Z,19.64
2018-05-10T01:40:11.414Z,19.47
2018-05-10T01:42:38.960Z,19.53
2018-05-10T01:45:06.381Z,19.34
2018-05-10T01:47:33.924Z,19.38
2018-05-10T01:50:01.410Z,19.28
2018-05-10T01:52:28.920Z,19.38
2018-05-10T01:54:56.434Z,19.42
2018-05-10T01:57:23.911Z,19.39
2018-05-10T01:59:51.418Z,19.33
2018-05-10T02:02:18.897Z,19.28
2018-05-10T02:04:46.415Z,19.28
2018-05-10T02:07:13.905Z,19.35
2018-05-10T02:09:41.404Z,19.45
2018-05-10T02:12:08.929Z,19.31
2018-05-10T02:14:36.418Z,19.28
2018-05-10T02:17:04.052Z,19.27
2018-05-10T02:19:32.455Z,19.31
2018-05-10T02:21:59.929Z,19.32
2018-05-10T02:24:27.446Z,19.30
2018-05-10T02:26:54.942Z,19.32
2018-05-10T02:29:22.458Z,19.33
2018-05-10T02:31:49.937Z,19.28
2018-05-10T02:34:17.542Z,19.19
2018-05-10T02:36:45.077Z,19.04
2018-05-10T02:39:12.550Z,19.12
2018-05-10T02:41:40.057Z,19.08
2018-05-10T02:44:07.535Z,18.81
2018-05-10T02:46:35.100Z,18.82
2018-05-10T02:49:02.573Z,18.85
2018-05-10T02:51:30.107Z,18.73
2018-05-10T02:53:57.578Z,18.93
2018-05-10T02:56:25.185Z,18.93
2018-05-10T02:58:52.663Z,18.97
2018-05-10T03:01:20.184Z,18.92
2018-05-10T03:03:47.686Z,18.64
2018-05-10T03:06:15.292Z,18.73
2018-05-10T03:08:42.809Z,18.70
2018-05-10T03:11:10.326Z,18.76
2018-05-10T03:13:37.833Z,18.73
2018-05-10T03:16:05.361Z,18.32
2018-05-10T03:18:32.972Z,18.26
2018-05-10T03:21:00.512Z,18.48
2018-05-10T03:23:28.027Z,18.45
2018-05-10T03:25:55.513Z,18.39
2018-05-10T03:28:23.044Z,18.54
2018-05-10T03:30:50.523Z,18.49
2018-05-10T03:33:18.122Z,18.57
2018-05-10T03:35:45.534Z,18.42
2018-05-10T03:38:13.036Z,18.44
2018-05-10T03:40:40.509Z,18.19
2018-05-10T03:43:08.038Z,18.39
2018-05-10T03:45:35.536Z,18.45
2018-05-10T03:48:03.050Z,18.43
2018-05-10T03:50:30.563Z,18.54
2018-05-10T03:52:58.044Z,18.32
2018-05-10T03:55:25.652Z,18.03
2018-05-10T03:57:53.131Z,17.88
2018-05-10T04:00:20.659Z,18.19
2018-05-10T04:06:14.821Z,18.10
2018-05-10T04:08:53.869Z,18.24
2018-05-10T04:11:26.205Z,17.98
2018-05-10T04:13:53.728Z,17.97
2018-05-10T04:16:21.198Z,17.93
2018-05-10T04:18:51.137Z,17.84
2018-05-10T04:21:18.647Z,17.91
2018-05-10T04:23:46.122Z,17.98
2018-05-10T04:26:13.787Z,17.96
2018-05-10T04:28:41.274Z,17.90
2018-05-10T04:31:08.827Z,18.03
2018-05-10T04:33:36.296Z,18.08
2018-05-10T04:36:03.811Z,18.22
2018-05-10T04:38:31.281Z,18.17
2018-05-10T04:40:58.802Z,18.03
2018-05-10T04:43:26.307Z,18.05
2018-05-10T04:45:53.880Z,17.94
2018-05-10T04:48:21.372Z,18.03
2018-05-10T04:50:48.843Z,17.71
2018-05-10T04:53:16.364Z,17.96
2018-05-10T04:55:43.873Z,18.02
2018-05-10T04:58:11.375Z,18.00
2018-05-10T05:00:38.868Z,18.18
2018-05-10T05:03:06.368Z,18.13
2018-05-10T05:05:33.863Z,18.23
2018-05-10T05:08:01.365Z,18.39
2018-05-10T05:10:28.865Z,18.34
2018-05-10T05:12:56.409Z,18.48
2018-05-10T05:15:23.905Z,18.56
2018-05-10T05:17:51.404Z,18.52
2018-05-10T05:20:18.909Z,18.66
2018-05-10T05:22:46.453Z,18.57
2018-05-10T05:25:13.978Z,18.58
2018-05-10T05:27:41.491Z,18.44
2018-05-10T05:30:09.005Z,18.43
2018-05-10T05:32:36.523Z,18.35
2018-05-10T05:35:36.703Z,18.44
2018-05-10T05:38:04.188Z,18.52
2018-05-10T05:40:31.774Z,18.51
2018-05-10T05:42:59.280Z,18.81
2018-05-10T05:45:26.781Z,18.95
2018-05-10T05:47:54.267Z,19.03
2018-05-10T05:50:21.834Z,19.03
2018-05-10T05:52:49.313Z,19.02
2018-05-10T05:55:16.844Z,19.19
2018-05-10T05:57:44.425Z,19.17
2018-05-10T06:00:11.938Z,19.22
2018-05-10T06:02:39.434Z,19.22
2018-05-10T06:05:06.923Z,19.27
2018-05-10T06:07:34.464Z,19.28
2018-05-10T06:10:01.969Z,19.46
2018-05-10T06:12:29.483Z,19.37
2018-05-10T06:14:57.005Z,19.46
2018-05-10T06:17:24.521Z,19.55
2018-05-10T06:19:52.049Z,19.60
2018-05-10T06:22:19.525Z,19.83
2018-05-10T06:24:47.106Z,20.00
2018-05-10T06:27:14.681Z,20.08
2018-05-10T06:29:42.193Z,20.16
2018-05-10T06:32:09.686Z,20.30
2018-05-10T06:34:37.233Z,20.26
2018-05-10T06:44:42.304Z,20.40
2018-05-10T06:47:09.817Z,20.41
2018-05-10T06:49:37.313Z,20.50
2018-05-10T06:52:04.837Z,20.32
2018-05-10T06:54:32.431Z,20.29
2018-05-10T06:56:59.866Z,20.35
2018-05-10T06:59:27.360Z,20.36
2018-05-10T07:01:54.855Z,20.30
2018-05-10T07:04:22.368Z,20.46
2018-05-10T07:06:49.903Z,20.35
2018-05-10T07:09:18.636Z,20.42
2018-05-10T07:11:46.653Z,20.52
2018-05-10T07:14:14.219Z,20.49
2018-05-10T07:16:41.839Z,20.53
2018-05-10T07:19:09.389Z,20.48
2018-05-10T07:21:36.915Z,20.56
2018-05-10T07:24:04.522Z,20.55
2018-05-10T07:26:32.135Z,20.70
2018-05-10T07:28:59.646Z,20.70
2018-05-10T07:31:27.344Z,20.68
2018-05-10T07:33:54.840Z,20.79
2018-05-10T07:36:22.328Z,20.80
2018-05-10T07:38:49.937Z,20.88
2018-05-10T07:41:17.439Z,20.86
2018-05-10T07:43:44.961Z,21.05
2018-05-10T07:46:12.444Z,21.07
2018-05-10T07:48:39.932Z,21.14
2018-05-10T07:51:07.543Z,21.07
2018-05-10T07:53:35.081Z,21.26
2018-05-10T07:56:02.616Z,21.22
2018-05-10T07:58:30.100Z,21.30
2018-05-10T08:00:57.627Z,21.32
2018-05-10T08:03:25.131Z,21.38
2018-05-10T08:05:53.242Z,21.33
2018-05-10T08:08:20.714Z,21.31
2018-05-10T08:10:48.230Z,21.58
2018-05-10T08:13:15.758Z,21.60
2018-05-10T08:15:43.258Z,21.95
2018-05-10T08:18:10.792Z,22.18
2018-05-10T08:20:38.307Z,22.20
2018-05-10T08:23:05.886Z,22.26
2018-05-10T08:25:33.382Z,22.19
2018-05-10T08:28:00.914Z,22.07
2018-05-10T08:30:28.425Z,22.16
2018-05-10T08:32:55.952Z,22.08
2018-05-10T08:35:23.424Z,22.27
2018-05-10T08:37:50.900Z,22.09
2018-05-10T08:40:18.498Z,22.15
2018-05-10T08:42:45.984Z,22.28
2018-05-10T08:45:13.553Z,22.32
2018-05-10T08:47:41.047Z,22.24
2018-05-10T08:50:08.612Z,22.20
2018-05-10T08:52:36.100Z,22.48
2018-05-10T08:55:03.611Z,22.41
2018-05-10T08:57:31.733Z,22.33
2018-05-10T08:59:59.365Z,22.46
2018-05-10T09:02:26.813Z,22.54
2018-05-10T09:04:54.286Z,22.77
2018-05-10T09:07:21.815Z,22.56
2018-05-10T09:09:49.323Z,22.69
2018-05-10T09:12:16.847Z,22.64
2018-05-10T09:14:44.422Z,22.73
2018-05-10T09:17:11.959Z,22.85
2018-05-10T09:19:39.468Z,22.88
2018-05-10T09:22:06.957Z,22.95
2018-05-10T09:24:34.470Z,23.04
2018-05-10T09:27:02.055Z,23.18
2018-05-10T09:29:29.534Z,23.40
2018-05-10T09:31:57.896Z,23.23
2018-05-10T09:34:25.566Z,23.19
2018-05-10T09:36:53.035Z,23.31
2018-05-10T09:39:20.687Z,23.21
2018-05-10T09:41:48.121Z,23.47
2018-05-10T09:44:15.721Z,23.65
2018-05-10T09:46:43.245Z,23.82
2018-05-10T09:49:11.212Z,23.63
2018-05-10T09:51:38.712Z,23.68
2018-05-10T09:54:06.205Z,23.73
2018-05-10T09:56:33.855Z,24.00
2018-05-10T09:59:01.376Z,23.78
2018-05-10T10:01:28.896Z,23.90
2018-05-10T10:03:56.448Z,24.14
2018-05-10T10:06:23.947Z,23.89
2018-05-10T10:08:51.457Z,24.16
2018-05-10T10:11:18.958Z,24.10
2018-05-10T10:13:46.488Z,24.10
2018-05-10T10:16:13.989Z,24.03
2018-05-10T10:18:41.520Z,24.44
2018-05-10T10:21:09.049Z,24.42
2018-05-10T10:23:42.481Z,24.42
2018-05-10T10:26:10.006Z,24.52
2018-05-10T10:28:37.498Z,24.70
2018-05-10T10:31:04.974Z,24.68
2018-05-10T10:33:32.548Z,24.91
2018-05-10T10:36:00.046Z,24.69
2018-05-10T10:38:27.586Z,25.15
2018-05-10T10:40:55.169Z,25.15
2018-05-10T10:43:22.652Z,25.12
2018-05-10T10:45:50.182Z,25.20
2018-05-10T10:48:17.750Z,25.22
2018-05-10T10:50:45.305Z,25.59
2018-05-10T10:53:13.518Z,25.24
2018-05-10T10:55:41.185Z,25.07
2018-05-10T10:58:08.709Z,25.20
2018-05-10T11:00:36.237Z,25.55
2018-05-10T11:03:03.880Z,25.08
2018-05-10T11:05:31.387Z,25.10
2018-05-10T11:07:59.277Z,25.38
2018-05-10T11:10:26.927Z,25.16
2018-05-10T11:12:54.433Z,25.75
2018-05-10T11:15:21.988Z,25.58
2018-05-10T11:17:49.590Z,25.62
2018-05-10T11:20:17.125Z,25.95
2018-05-10T11:22:44.704Z,25.88
2018-05-10T11:25:12.203Z,26.23
2018-05-10T11:27:39.753Z,26.37
2018-05-10T11:30:07.315Z,26.16
2018-05-10T11:32:35.174Z,26.12
2018-05-10T11:35:02.661Z,26.22
2018-05-10T11:37:30.192Z,26.46
2018-05-10T11:39:57.811Z,26.28
2018-05-10T11:42:25.385Z,26.16
2018-05-10T11:44:53.675Z,26.08
2018-05-10T11:47:21.156Z,25.98
2018-05-10T11:49:48.716Z,25.75
2018-05-10T11:52:16.249Z,25.77
2018-05-10T11:54:43.769Z,25.71
2018-05-10T11:57:11.311Z,25.62
2018-05-10T11:59:38.799Z,25.83
2018-05-10T12:02:06.358Z,25.77
2018-05-10T12:04:33.887Z,25.78
2018-05-10T12:07:01.495Z,25.59
2018-05-10T12:09:29.046Z,25.58
2018-05-10T12:11:56.551Z,25.56
2018-05-10T12:14:24.055Z,25.59
2018-05-10T12:16:51.576Z,25.56
2018-05-10T12:19:19.176Z,25.43
2018-05-10T12:21:46.625Z,24.90
2018-05-10T12:24:14.137Z,24.64
2018-05-10T12:26:41.620Z,24.84
2018-05-10T12:29:09.159Z,25.01
2018-05-10T12:31:36.688Z,25.00
2018-05-10T12:34:04.586Z,24.87
2018-05-10T12:36:32.236Z,24.95
2018-05-10T12:38:59.744Z,24.84
2018-05-10T12:41:27.438Z,24.95
2018-05-10T12:43:54.906Z,24.76
2018-05-10T12:46:22.458Z,24.83
2018-05-10T12:48:49.997Z,24.82
2018-05-10T12:51:17.548Z,24.71
2018-05-10T12:53:45.154Z,24.48
2018-05-10T12:56:12.748Z,24.32
2018-05-10T12:58:40.188Z,24.32
2018-05-10T13:01:07.678Z,24.31
2018-05-10T13:03:35.203Z,24.26
2018-05-10T13:06:02.755Z,24.33
2018-05-10T13:08:30.252Z,24.18
2018-05-10T13:10:57.768Z,24.06
2018-05-10T13:13:25.265Z,23.77
2018-05-10T13:15:52.750Z,23.41
2018-05-10T13:18:20.307Z,22.81
2018-05-10T13:20:47.913Z,22.69
2018-05-10T13:23:15.446Z,22.67
2018-05-10T13:25:43.039Z,22.40
2018-05-10T13:28:10.657Z,22.50
2018-05-10T13:30:38.219Z,21.92
2018-05-10T13:33:05.709Z,22.02
2018-05-10T13:35:33.275Z,21.77
2018-05-10T13:38:00.757Z,21.50
2018-05-10T13:40:28.241Z,21.18
2018-05-10T13:42:55.858Z,21.41
2018-05-10T13:45:23.345Z,21.51
2018-05-10T13:47:50.867Z,21.78
2018-05-10T13:50:18.345Z,21.46
2018-05-10T13:52:45.860Z,21.51
2018-05-10T13:55:13.469Z,20.90
2018-05-10T13:57:41.011Z,20.09
2018-05-10T14:00:08.487Z,20.16
2018-05-10T14:02:36.016Z,20.51
2018-05-10T14:05:07.012Z,20.60
2018-05-10T14:07:37.045Z,21.06
2018-05-10T14:10:04.607Z,20.63
2018-05-10T14:12:32.091Z,20.09
2018-05-10T14:14:59.690Z,20.10
2018-05-10T14:17:27.194Z,19.95
2018-05-10T14:19:54.687Z,19.81
2018-05-10T14:22:22.174Z,20.02
2018-05-10T14:24:49.702Z,19.72
2018-05-10T14:27:17.179Z,19.75
2018-05-10T14:29:44.702Z,19.95
2018-05-10T14:32:12.233Z,20.19
2018-05-10T14:34:39.730Z,19.89
2018-05-10T14:37:07.255Z,19.84
2018-05-10T14:39:34.814Z,19.88
2018-05-10T14:42:02.314Z,19.93
2018-05-10T14:44:29.877Z,19.91
2018-05-10T14:46:57.387Z,19.87
2018-05-10T14:49:24.921Z,20.06
2018-05-10T14:51:52.477Z,20.25
2018-05-10T14:54:19.954Z,20.34
2018-05-10T14:56:48.056Z,19.96
2018-05-10T14:59:15.548Z,20.05
2018-05-10T15:01:43.143Z,19.82
2018-05-10T15:04:10.624Z,20.00
2018-05-10T15:06:38.131Z,19.99
2018-05-10T15:09:05.631Z,20.06
2018-05-10T15:11:33.164Z,19.76
2018-05-10T15:14:00.666Z,19.75
2018-05-10T15:16:28.137Z,19.76
2018-05-10T15:18:55.628Z,19.66
2018-05-10T15:21:23.109Z,19.64
2018-05-10T15:23:51.360Z,19.53
2018-05-10T15:26:18.858Z,19.73
2018-05-10T15:28:46.487Z,19.58
2018-05-10T15:31:13.953Z,19.82
2018-05-10T15:33:41.427Z,19.45
2018-05-10T15:36:09.880Z,19.61
2018-05-10T15:38:37.376Z,19.65
2018-05-10T15:41:05.024Z,19.80
2018-05-10T15:43:32.783Z,19.42
2018-05-10T15:46:00.398Z,19.65
2018-05-10T15:48:27.884Z,19.32
2018-05-10T15:50:55.424Z,19.25
2018-05-10T15:53:23.015Z,19.30
2018-05-10T15:55:50.509Z,18.94
2018-05-10T15:58:18.128Z,18.99
2018-05-10T16:00:46.536Z,18.72
2018-05-10T16:03:14.043Z,18.71
2018-05-10T16:05:44.029Z,18.90
2018-05-10T16:08:11.541Z,18.99
2018-05-10T16:10:39.037Z,18.96
2018-05-10T16:13:06.580Z,19.23
2018-05-10T16:15:34.080Z,19.03
2018-05-10T16:18:01.634Z,19.06
2018-05-10T16:20:29.132Z,18.89
2018-05-10T16:22:58.559Z,18.97
2018-05-10T16:25:26.035Z,19.12
2018-05-10T16:27:54.637Z,19.00
2018-05-10T16:30:22.167Z,18.85
2018-05-10T16:32:49.665Z,18.95
2018-05-10T16:35:17.252Z,18.62
2018-05-10T16:37:44.753Z,18.88
2018-05-10T16:40:12.285Z,18.98
2018-05-10T16:42:39.781Z,18.81
2018-05-10T16:45:07.688Z,18.61
2018-05-10T16:47:35.214Z,18.60
2018-05-10T16:50:02.711Z,18.87
2018-05-10T16:52:30.810Z,18.52
2018-05-10T16:54:58.282Z,18.73
2018-05-10T16:57:26.426Z,18.42
2018-05-10T16:59:53.897Z,18.44
2018-05-10T17:02:21.408Z,18.50
2018-05-10T17:04:48.905Z,18.57
2018-05-10T17:07:16.406Z,18.26
2018-05-10T17:09:43.880Z,18.11
2018-05-10T17:12:11.376Z,18.28
2018-05-10T17:14:38.882Z,18.14
2018-05-10T17:17:07.064Z,18.60
2018-05-10T17:19:34.560Z,18.51
2018-05-10T17:22:02.050Z,18.60
2018-05-10T17:24:29.572Z,18.81
2018-05-10T17:26:57.060Z,18.63
2018-05-10T17:29:24.572Z,18.60
2018-05-10T17:31:52.068Z,18.45
2018-05-10T17:34:19.596Z,18.45
2018-05-10T17:36:47.161Z,18.28
2018-05-10T17:39:15.431Z,18.57
2018-05-10T17:41:42.971Z,18.70
2018-05-10T17:44:10.462Z,18.40
2018-05-10T17:46:38.024Z,18.31
2018-05-10T17:49:05.531Z,18.46
2018-05-10T17:51:33.310Z,18.00
2018-05-10T17:54:00.798Z,18.07
2018-05-10T17:56:28.314Z,18.26
2018-05-10T17:58:55.814Z,18.11
2018-05-10T18:01:23.444Z,17.96
2018-05-10T18:03:50.970Z,18.06
2018-05-10T18:06:18.508Z,18.05
2018-05-10T18:08:46.130Z,17.85
2018-05-10T18:11:13.629Z,17.69
2018-05-10T18:13:41.790Z,17.75
2018-05-10T18:16:09.240Z,17.70
2018-05-10T18:18:36.735Z,17.75
2018-05-10T18:21:04.267Z,17.80
2018-05-10T18:23:32.393Z,17.98
2018-05-10T18:25:59.959Z,17.72
2018-05-10T18:28:27.474Z,17.68
2018-05-10T18:30:54.976Z,17.71
2018-05-10T18:33:22.663Z,17.79
2018-05-10T18:35:50.105Z,17.42
2018-05-10T18:38:17.592Z,17.64
2018-05-10T18:40:45.165Z,17.73
2018-05-10T18:43:12.625Z,17.43
2018-05-10T18:45:40.583Z,17.49
2018-05-10T18:48:08.064Z,17.21
2018-05-10T18:50:35.584Z,17.33
2018-05-10T18:53:03.117Z,17.27
2018-05-10T18:55:31.759Z,17.03
2018-05-10T18:57:59.652Z,16.97
2018-05-10T19:00:33.207Z,16.95
2018-05-10T19:03:00.744Z,17.27
2018-05-10T19:05:28.372Z,16.74
2018-05-10T19:07:57.988Z,16.93
2018-05-10T19:10:25.586Z,16.96
2018-05-10T19:13:02.309Z,16.81
2018-05-10T19:15:31.220Z,16.64
2018-05-10T19:17:58.633Z,16.59
2018-05-10T19:20:26.164Z,16.88
2018-05-10T19:22:53.709Z,16.70
2018-05-10T19:25:21.183Z,16.77
2018-05-10T19:27:48.702Z,16.71
2018-05-10T19:30:16.196Z,16.88
2018-05-10T19:32:43.694Z,16.62
2018-05-10T19:35:11.216Z,16.70
2018-05-10T19:37:38.808Z,16.38
2018-05-10T19:40:06.374Z,16.58
2018-05-10T19:42:33.893Z,16.44
2018-05-10T19:45:01.394Z,16.43
2018-05-10T19:47:28.987Z,16.39
2018-05-10T19:49:56.480Z,16.55
2018-05-10T19:52:23.996Z,16.57
2018-05-10T19:54:51.476Z,16.43
2018-05-10T19:57:19.468Z,16.67
2018-05-10T19:59:46.980Z,16.54
2018-05-10T20:02:14.504Z,16.70
2018-05-10T20:04:42.017Z,16.24
2018-05-10T20:07:09.662Z,16.17
2018-05-10T20:09:37.208Z,16.17
2018-05-10T20:12:04.688Z,15.74
2018-05-10T20:14:32.225Z,16.09
2018-05-10T20:16:59.799Z,15.93
2018-05-10T20:19:27.216Z,16.13
2018-05-10T20:21:54.684Z,16.22
2018-05-10T20:24:22.263Z,15.97
2018-05-10T20:26:49.804Z,16.15
2018-05-10T20:29:17.325Z,15.80
2018-05-10T20:31:44.821Z,16.05
2018-05-10T20:34:12.346Z,16.07
2018-05-10T20:36:39.850Z,15.98
2018-05-10T20:39:07.352Z,15.81
2018-05-10T20:41:34.839Z,15.54
2018-05-10T20:44:02.520Z,15.65
2018-05-10T20:46:29.998Z,15.77
2018-05-10T20:48:57.553Z,15.51
2018-05-10T20:51:25.053Z,15.45
2018-05-10T20:53:52.589Z,15.67
2018-05-10T20:56:20.080Z,15.75
2018-05-10T20:58:47.583Z,15.60
2018-05-10T21:01:15.166Z,15.70
2018-05-10T21:03:42.732Z,15.76
2018-05-10T21:06:10.293Z,15.60
2018-05-10T21:08:38.302Z,15.79
2018-05-10T21:11:05.872Z,15.62
2018-05-10T21:13:33.657Z,15.67
2018-05-10T21:16:01.165Z,15.49
2018-05-10T21:18:28.674Z,15.68
2018-05-10T21:20:56.521Z,15.64
2018-05-10T21:23:23.992Z,15.56
2018-05-10T21:25:51.466Z,15.40
2018-05-10T21:28:19.077Z,15.42
2018-05-10T21:30:46.599Z,15.49
2018-05-10T21:33:14.065Z,15.33
2018-05-10T21:35:41.560Z,15.39
2018-05-10T21:38:09.068Z,15.49
2018-05-10T21:40:36.630Z,15.53
2018-05-10T21:43:04.113Z,15.42
2018-05-10T21:45:31.586Z,15.65
2018-05-10T21:47:59.237Z,15.47
2018-05-10T21:50:27.504Z,15.32
2018-05-10T21:52:55.036Z,15.20
2018-05-10T21:55:22.532Z,15.13
2018-05-10T21:57:50.066Z,15.12
2018-05-10T22:00:17.600Z,15.04
2018-05-10T22:02:45.182Z,15.05
2018-05-10T22:05:12.684Z,15.03
2018-05-10T22:07:40.945Z,14.99
2018-05-10T22:10:08.423Z,15.23
2018-05-10T22:12:35.913Z,15.07
2018-05-10T22:15:03.438Z,15.39
2018-05-10T22:17:30.951Z,14.92
2018-05-10T22:19:59.352Z,15.05
2018-05-10T22:22:27.508Z,15.11
2018-05-10T22:24:55.182Z,15.24
2018-05-10T22:27:23.860Z,15.01
2018-05-10T22:29:52.545Z,14.88
2018-05-10T22:32:25.846Z,14.93
2018-05-10T22:34:55.548Z,14.98
2018-05-10T22:37:25.800Z,15.13
2018-05-10T22:39:55.387Z,15.04
2018-05-10T22:42:22.901Z,14.93
2018-05-10T22:44:50.483Z,15.03
2018-05-10T22:47:17.980Z,15.19
2018-05-10T22:49:45.457Z,15.04
2018-05-10T22:52:12.978Z,14.99
2018-05-10T22:54:40.496Z,15.06
2018-05-10T22:57:08.017Z,15.11
2018-05-10T22:59:35.857Z,15.04
2018-05-10T23:02:03.353Z,14.87
2018-05-10T23:04:30.835Z,14.94
2018-05-10T23:06:58.369Z,14.92
2018-05-10T23:09:25.850Z,14.89
2018-05-10T23:11:53.333Z,14.96
2018-05-10T23:14:20.798Z,14.91
2018-05-10T23:16:48.292Z,14.87
2018-05-10T23:19:15.750Z,14.68
2018-05-10T23:21:43.247Z,14.79
2018-05-10T23:24:10.790Z,14.83
2018-05-10T23:26:38.312Z,14.84
2018-05-10T23:29:05.818Z,14.78
2018-05-10T23:31:33.308Z,14.52
2018-05-10T23:34:00.852Z,14.60
2018-05-10T23:36:28.404Z,14.62
2018-05-10T23:38:55.999Z,14.77
2018-05-10T23:41:23.957Z,14.48
2018-05-10T23:43:51.460Z,14.53
2018-05-10T23:46:18.937Z,14.63
2018-05-10T23:48:46.478Z,14.81
2018-05-10T23:51:13.966Z,14.70
2018-05-10T23:53:41.449Z,14.71
2018-05-10T23:56:08.968Z,14.64
2018-05-10T23:58:36.454Z,14.62
